Flight Track Log - Related Links

Times and Time Zones

All times are in EDT time to prevent confusion due to time zone crossing. See the DAL3974 flight status page for this flight to view local times or setup timezone preferences in your user account.

Time Position Orientation Groundspeed Altitude Reporting Facility
EDT Latitude Longitude Course Direction KTS MPH feet Rate Location/Type
Tue 07:53:57 PM 42.2017 -83.3583 56° Northeast 154 177 1,200  Level Cleveland Center
Tue 07:54:46 PM 42.1661 -83.3567 178° South 179 206 2,600 1,909 Climbing Cleveland Center
Tue 07:55:47 PM 42.1119 -83.3514 176° South 215 247 4,700 1,875 Climbing Cleveland Center
Tue 07:56:54 PM 42.0783 -83.2856 125° Southeast 289 333 6,600 2,016 Climbing Cleveland Center
Tue 07:57:00 PM 42.3068 -82.7725 78° East  Level FlightAware Approximate
Tue 07:57:55 PM 42.0975 -83.1717 77° East 302 348 9,000  Level Cleveland Center
Tue 07:58:00 PM 42.3295 -82.6251 78° East  Level FlightAware Approximate
Tue 07:58:58 PM 42.1247 -83.0719 70° East 316 364 10,500  Level Cleveland Center
Tue 07:59:00 PM 42.3524 -82.4786 56° Northeast  Level FlightAware Approximate
Tue 07:59:58 PM 42.1708 -82.9589 61° Northeast 321 369 11,500  Level Cleveland Center
Tue 08:00:58 PM 42.2192 -82.8375 62° Northeast 341 392 13,100 1,650 Climbing Cleveland Center
Tue 08:01:58 PM 42.2653 -82.7156 63° Northeast 352 405 14,800 1,650 Climbing Cleveland Center
Tue 08:02:58 PM 42.3133 -82.5936 62° Northeast 358 412 16,400 1,400 Climbing Cleveland Center
Tue 08:03:58 PM 42.3594 -82.4658 64° Northeast 364 419 17,600 1,200 Climbing Cleveland Center
Tue 08:04:58 PM 42.3617 -82.3197 89° East 369 425 18,800 1,100 Climbing Cleveland Center
Tue 08:05:58 PM 42.3553 -82.1764 93° East 374 430 19,800 950 Climbing Cleveland Center
Tue 08:06:58 PM 42.3492 -82.0103 93° East 390 449 20,700 800 Climbing Cleveland Center
Tue 08:07:58 PM 42.3428 -81.8528 93° East 409 471 21,400 800 Climbing Cleveland Center
Tue 08:08:58 PM 42.3361 -81.6956 93° East 417 480 22,300 800 Climbing Cleveland Center
Tue 08:09:58 PM 42.3289 -81.5550 94° East 422 486 23,000 600 Climbing Cleveland Center
Tue 08:10:58 PM 42.3219 -81.3947 93° East 422 486 23,500 500 Climbing Cleveland Center
Tue 08:11:58 PM 42.3125 -81.2289 94° East 428 493 24,000 500 Climbing Cleveland Center
Tue 08:12:58 PM 42.3050 -81.0603 93° East 446 513 24,500 550 Climbing Cleveland Center
Tue 08:13:58 PM 42.2950 -80.8947 95° East 446 513 25,100 550 Climbing Cleveland Center
Tue 08:14:58 PM 42.2872 -80.7264 94° East 441 507 25,600 500 Climbing Cleveland Center
Tue 08:15:58 PM 42.2767 -80.5411 94° East 441 507 26,100 500 Climbing Cleveland Center
Tue 08:16:58 PM 42.2661 -80.3756 95° East 441 507 26,600 500 Climbing Cleveland Center
Tue 08:17:58 PM 42.2575 -80.2072 94° East 447 514 27,100 500 Climbing Cleveland Center
Tue 08:18:58 PM 42.2483 -80.0389 94° East 447 514 27,600 500 Climbing Cleveland Center
Tue 08:19:58 PM 42.2392 -79.8878 95° East 442 509 28,100 500 Climbing Cleveland Center
Tue 08:20:58 PM 42.2278 -79.7222 95° East 442 509 28,600 450 Climbing Cleveland Center
Tue 08:21:58 PM 42.2181 -79.5569 94° East 442 509 29,000 200 Climbing Cleveland Center
Tue 08:22:58 PM 42.2081 -79.3861 94° East 442 509 29,000  Level Cleveland Center
Tue 08:23:58 PM 42.1958 -79.2183 96° East 442 509 29,000  Level Cleveland Center
Tue 08:24:58 PM 42.1978 -79.0500 89° East 442 509 29,000  Level Cleveland Center
Tue 08:25:58 PM 42.2222 -78.8672 80° East 442 509 29,000  Level Cleveland Center
Tue 08:26:58 PM 42.2428 -78.7039 80° East 447 514 29,000  Level Cleveland Center
Tue 08:27:58 PM 42.2628 -78.5378 81° East 447 514 29,000  Level Cleveland Center
Tue 08:28:58 PM 42.2828 -78.3717 81° East 447 514 29,000  Level Cleveland Center
Tue 08:29:58 PM 42.3044 -78.2081 80° East 447 514 29,000  Level Cleveland Center
Tue 08:30:58 PM 42.3239 -78.0444 81° East 447 514 29,000  Level Cleveland Center
Tue 08:31:58 PM 42.3431 -77.8778 81° East 447 514 29,000  Level Cleveland Center
Tue 08:34:14 PM 42.3847 -77.5175 81° East 445 512 29,000  Level Boston Center
Tue 08:35:14 PM 42.4025 -77.3531 82° East 445 512 29,000  Level Boston Center
Tue 08:36:14 PM 42.4219 -77.1858 81° East 445 512 29,000  Level Boston Center
Tue 08:37:14 PM 42.4392 -77.0211 82° East 445 512 29,000  Level Boston Center
Tue 08:38:14 PM 42.4583 -76.8561 81° East 445 512 29,000  Level Boston Center
Tue 08:39:14 PM 42.4769 -76.6942 81° East 445 512 29,000  Level Boston Center
Tue 08:40:14 PM 42.4936 -76.5292 82° East 445 512 29,000  Level Boston Center
Tue 08:41:14 PM 42.5094 -76.3697 82° East 440 506 29,000  Level Boston Center
Tue 08:42:14 PM 42.5275 -76.2100 81° East 435 501 29,000  Level Boston Center
Tue 08:43:14 PM 42.5453 -76.0478 81° East 435 501 29,000  Level Boston Center
Tue 08:44:14 PM 42.5556 -75.9186 84° East 435 501 29,000  Level Boston Center
Tue 08:45:14 PM 42.5739 -75.7278 83° East 435 501 29,000  Level Boston Center
Tue 08:46:14 PM 42.5886 -75.5706 83° East 425 489 29,000  Level Boston Center
Tue 08:47:14 PM 42.6075 -75.4078 81° East 425 489 29,000  Level Boston Center
Tue 08:48:14 PM 42.6225 -75.2308 83° East 425 489 29,000  Level Boston Center
Tue 08:49:14 PM 42.6367 -75.0706 83° East 425 489 29,000  Level Boston Center
Tue 08:50:14 PM 42.6508 -74.9131 83° East 425 489 29,000  Level Boston Center
Tue 08:51:14 PM 42.6667 -74.7469 83° East 425 489 29,000  Level Boston Center
Tue 08:52:14 PM 42.6825 -74.5839 82° East 430 495 29,000  Level Boston Center
Tue 08:53:14 PM 42.6978 -74.4178 83° East 430 495 29,000 -300 Level Boston Center
Tue 08:54:14 PM 42.7111 -74.2542 84° East 435 501 28,400 -1,150 Descending Boston Center
Tue 08:55:14 PM 42.7242 -74.0850 84° East 442 509 26,700 -1,700 Descending Boston Center
Tue 08:56:14 PM 42.7367 -73.9214 84° East 442 509 25,000 -1,600 Descending Boston Center
Tue 08:57:14 PM 42.7492 -73.7606 84° East 442 509 23,500 -1,450 Descending Boston Center
Tue 08:58:14 PM 42.7550 -73.6022 87° East 429 494 22,100 -1,500 Descending Boston Center
Tue 08:59:14 PM 42.7608 -73.4439 87° East 419 482 20,500 -1,500 Descending Boston Center
Tue 09:00:14 PM 42.7683 -73.2886 86° East 419 482 19,100 -750 Descending Boston Center
Tue 09:01:14 PM 42.7692 -73.1358 90° East 410 472 19,000 -50 Descending Boston Center
Tue 09:02:14 PM 42.7783 -72.9861 85° East 398 458 19,000 -400 Level Boston Center
Tue 09:03:14 PM 42.7831 -72.8333 88° East 398 458 18,200 -1,050 Descending Boston Center
Tue 09:04:14 PM 42.7856 -72.6892 89° East 398 458 16,900 -1,350 Descending Boston Center
Tue 09:05:14 PM 42.7881 -72.5475 89° East 386 444 15,500 -1,550 Descending Boston Center
Tue 09:06:14 PM 42.7922 -72.4147 88° East 366 421 13,800 -1,800 Descending Boston Center
Tue 09:07:14 PM 42.7983 -72.2931 86° East 346 398 11,900 -1,700 Descending Boston Center
Tue 09:08:14 PM 42.8108 -72.1939 80° East 309 356 10,400 -1,300 Descending Boston Center
Tue 09:09:14 PM 42.8292 -72.0806 78° East 277 319 9,300 -1,000 Descending Boston Center
Tue 09:10:14 PM 42.8539 -71.9956 68° East 266 306 8,400 -1,000 Descending Boston Center
Tue 09:11:14 PM 42.8889 -71.8989 64° Northeast 254 292 7,300 -1,000 Descending Boston Center
Tue 09:12:14 PM 42.9178 -71.8250 62° Northeast 242 278 6,400 -1,250 Descending Boston Center
Tue 09:13:14 PM 42.9525 -71.7367 62° Northeast 237 273 4,800 -1,300 Descending Boston Center
Tue 09:14:14 PM 42.9814 -71.6625 62° Northeast 242 278 3,800 -1,050 Descending Boston Center
Tue 09:15:14 PM 43.0100 -71.5825 64° Northeast 226 260 2,700 -1,100 Descending Boston Center

Login

Don't have an account? Register now (free) for customized features, flight alerts, and more!